Etusivu
METAR-TAF:

METAR-TAF

Lentoasemat :

Eagle River Union Airport

Eagle River, Wisconsin, Yhdysvallat

Leveyspiiri: 45-55-54N, Pituuspiiri: 089-16-09W, korkeus merenpinnasta: 501 m

Tämänhetkinen sää

Tämä raportti tehtiin 16 minuuttia sitten, kello 17.35 UTC
Tuuli 4 kn lounaasta
Lämpötila -2°C
Kosteus 100%
Ilmanpaine 1008 hPa
Näkyvyys: 8.0 km
Pilvistä 400 ft:n korkeudessa
utua

METAR: KEGV 191735Z AUTO 23004KT 5SM BR OVC004 M02/M02 A2976 RMK AO2 T10161020

Aika: 11:51 (17:51 UTC)


TAF: puuttuu

Säähavainnot ja -ennusteet yli 4000 lentoasemalta (METAR- ja TAF-raportit).

Käytössä olevat sääasemat on merkitty karttaan keltaisilla ja punaisilla pisteillä.

Aseta hiiri pisteen päälle nähdäksesi sääaseman nimen.

Klikkaa sitten nähdäksesi säähavainnot ja -ennusteet.

Kartan vaihtaminen: klikkaa mustalla rastilla varustettuja vihreitä pisteitä, niin voit zoomata sisään; viivalla varustettua vihreää pistettä, niin voit zoomata ulos tai vihreitä nuolia, niin pääset viereisille kartoille.


METAR-TAF: